sensor_id;sensor_type;location;lat;lon;timestamp;pressure;altitude;pressure_sealevel;temperature;humidity
83762;BME280;73752;49.594;8.734;2023-12-29T00:01:34;99471.38;;;8.48;80.57
83762;BME280;73752;49.594;8.734;2023-12-29T00:04:01;99495.38;;;8.71;80.13
83762;BME280;73752;49.594;8.734;2023-12-29T00:06:27;99482.41;;;8.70;79.76
83762;BME280;73752;49.594;8.734;2023-12-29T00:08:54;99492.53;;;8.73;80.22
83762;BME280;73752;49.594;8.734;2023-12-29T00:11:20;99473.50;;;8.71;80.54
83762;BME280;73752;49.594;8.734;2023-12-29T00:13:47;99477.41;;;8.62;80.42
83762;BME280;73752;49.594;8.734;2023-12-29T00:16:16;99476.38;;;8.63;80.53
83762;BME280;73752;49.594;8.734;2023-12-29T00:18:44;99474.44;;;8.45;81.08
83762;BME280;73752;49.594;8.734;2023-12-29T00:21:10;99467.38;;;8.45;81.55
83762;BME280;73752;49.594;8.734;2023-12-29T00:23:37;99466.81;;;8.37;81.56
83762;BME280;73752;49.594;8.734;2023-12-29T00:26:04;99461.13;;;8.33;81.54
83762;BME280;73752;49.594;8.734;2023-12-29T00:28:31;99452.03;;;8.29;81.85
83762;BME280;73752;49.594;8.734;2023-12-29T00:30:57;99458.94;;;8.24;82.11
83762;BME280;73752;49.594;8.734;2023-12-29T00:33:24;99460.53;;;8.25;82.76
83762;BME280;73752;49.594;8.734;2023-12-29T00:35:51;99453.47;;;8.32;82.31
83762;BME280;73752;49.594;8.734;2023-12-29T00:38:21;99460.91;;;8.41;81.61
83762;BME280;73752;49.594;8.734;2023-12-29T00:40:48;99464.38;;;8.35;82.15
83762;BME280;73752;49.594;8.734;2023-12-29T00:43:14;99453.84;;;8.29;82.37
83762;BME280;73752;49.594;8.734;2023-12-29T00:45:41;99477.34;;;8.24;82.79
83762;BME280;73752;49.594;8.734;2023-12-29T00:48:08;99453.69;;;8.17;82.86
83762;BME280;73752;49.594;8.734;2023-12-29T00:50:35;99451.88;;;8.18;82.74
83762;BME280;73752;49.594;8.734;2023-12-29T00:53:04;99430.59;;;8.32;82.19
83762;BME280;73752;49.594;8.734;2023-12-29T00:55:34;99444.34;;;8.34;82.21
83762;BME280;73752;49.594;8.734;2023-12-29T00:58:00;99462.44;;;8.56;81.84
83762;BME280;73752;49.594;8.734;2023-12-29T01:00:27;99439.81;;;8.48;81.31
83762;BME280;73752;49.594;8.734;2023-12-29T01:02:53;99464.06;;;8.57;81.29
83762;BME280;73752;49.594;8.734;2023-12-29T01:05:20;99442.63;;;8.53;81.17
83762;BME280;73752;49.594;8.734;2023-12-29T01:07:47;99444.25;;;8.54;80.98
83762;BME280;73752;49.594;8.734;2023-12-29T01:10:14;99446.88;;;8.54;80.92
83762;BME280;73752;49.594;8.734;2023-12-29T01:12:41;99466.94;;;8.55;80.85
83762;BME280;73752;49.594;8.734;2023-12-29T01:15:08;99441.69;;;8.41;81.60
83762;BME280;73752;49.594;8.734;2023-12-29T01:17:35;99432.38;;;8.38;81.57
83762;BME280;73752;49.594;8.734;2023-12-29T01:20:01;99449.00;;;8.32;81.59
83762;BME280;73752;49.594;8.734;2023-12-29T01:22:33;99458.91;;;8.30;82.09
83762;BME280;73752;49.594;8.734;2023-12-29T01:25:02;99441.72;;;8.21;82.25
83762;BME280;73752;49.594;8.734;2023-12-29T01:27:29;99439.28;;;8.26;82.08
83762;BME280;73752;49.594;8.734;2023-12-29T01:29:56;99434.44;;;8.30;81.87
83762;BME280;73752;49.594;8.734;2023-12-29T01:32:22;99442.31;;;8.30;81.90
83762;BME280;73752;49.594;8.734;2023-12-29T01:34:49;99460.50;;;8.38;81.69
83762;BME280;73752;49.594;8.734;2023-12-29T01:37:15;99435.06;;;8.32;81.59
83762;BME280;73752;49.594;8.734;2023-12-29T01:39:42;99438.28;;;8.27;81.85
83762;BME280;73752;49.594;8.734;2023-12-29T01:42:08;99430.81;;;8.31;81.57
83762;BME280;73752;49.594;8.734;2023-12-29T01:44:37;99438.88;;;8.29;81.96
83762;BME280;73752;49.594;8.734;2023-12-29T01:47:09;99431.41;;;8.26;81.93
83762;BME280;73752;49.594;8.734;2023-12-29T01:49:37;99419.88;;;8.27;81.56
83762;BME280;73752;49.594;8.734;2023-12-29T01:52:04;99415.44;;;8.21;81.66
83762;BME280;73752;49.594;8.734;2023-12-29T01:54:34;99423.75;;;8.18;81.65
83762;BME280;73752;49.594;8.734;2023-12-29T01:57:02;99414.03;;;8.19;81.13
83762;BME280;73752;49.594;8.734;2023-12-29T01:59:29;99406.59;;;8.09;81.60
83762;BME280;73752;49.594;8.734;2023-12-29T02:01:57;99418.84;;;8.28;80.73
83762;BME280;73752;49.594;8.734;2023-12-29T02:04:25;99405.09;;;8.26;80.47
83762;BME280;73752;49.594;8.734;2023-12-29T02:06:52;99390.56;;;8.17;80.64
83762;BME280;73752;49.594;8.734;2023-12-29T02:09:19;99388.94;;;8.16;80.58
83762;BME280;73752;49.594;8.734;2023-12-29T02:11:46;99386.94;;;8.18;80.42
83762;BME280;73752;49.594;8.734;2023-12-29T02:14:14;99394.38;;;8.28;79.78
83762;BME280;73752;49.594;8.734;2023-12-29T02:19:43;99383.25;;;8.32;79.18
83762;BME280;73752;49.594;8.734;2023-12-29T02:22:11;99393.53;;;8.40;79.46
83762;BME280;73752;49.594;8.734;2023-12-29T02:24:39;99371.50;;;8.28;79.57
83762;BME280;73752;49.594;8.734;2023-12-29T02:27:37;99391.69;;;8.41;79.57
83762;BME280;73752;49.594;8.734;2023-12-29T02:30:27;99369.28;;;8.32;79.38
83762;BME280;73752;49.594;8.734;2023-12-29T02:33:01;99374.28;;;8.40;78.82
83762;BME280;73752;49.594;8.734;2023-12-29T02:35:34;99387.63;;;8.45;78.57
83762;BME280;73752;49.594;8.734;2023-12-29T02:38:03;99367.22;;;8.40;78.10
83762;BME280;73752;49.594;8.734;2023-12-29T02:40:29;99368.41;;;8.44;77.96
83762;BME280;73752;49.594;8.734;2023-12-29T02:42:56;99379.13;;;8.43;78.29
83762;BME280;73752;49.594;8.734;2023-12-29T02:45:23;99381.94;;;8.48;78.81
83762;BME280;73752;49.594;8.734;2023-12-29T02:47:50;99397.16;;;8.39;78.61
83762;BME280;73752;49.594;8.734;2023-12-29T02:50:17;99381.00;;;8.36;78.36
83762;BME280;73752;49.594;8.734;2023-12-29T02:52:44;99393.78;;;8.32;78.54
83762;BME280;73752;49.594;8.734;2023-12-29T02:55:10;99390.69;;;8.29;77.86
83762;BME280;73752;49.594;8.734;2023-12-29T02:57:38;99378.81;;;8.33;78.20
83762;BME280;73752;49.594;8.734;2023-12-29T03:00:05;99389.53;;;8.31;78.33
83762;BME280;73752;49.594;8.734;2023-12-29T03:02:32;99403.84;;;8.42;78.07
83762;BME280;73752;49.594;8.734;2023-12-29T03:04:59;99400.22;;;8.36;78.26
83762;BME280;73752;49.594;8.734;2023-12-29T03:07:26;99396.38;;;8.26;78.16
83762;BME280;73752;49.594;8.734;2023-12-29T03:09:52;99398.22;;;8.25;78.20
83762;BME280;73752;49.594;8.734;2023-12-29T03:12:19;99400.28;;;8.17;78.47
83762;BME280;73752;49.594;8.734;2023-12-29T03:14:46;99402.09;;;8.16;78.43
83762;BME280;73752;49.594;8.734;2023-12-29T03:17:15;99419.69;;;8.22;78.51
83762;BME280;73752;49.594;8.734;2023-12-29T03:19:42;99409.34;;;8.21;77.70
83762;BME280;73752;49.594;8.734;2023-12-29T03:22:11;99409.75;;;8.24;77.31
83762;BME280;73752;49.594;8.734;2023-12-29T03:24:40;99404.06;;;8.34;77.01
83762;BME280;73752;49.594;8.734;2023-12-29T03:27:08;99416.63;;;8.32;77.44
83762;BME280;73752;49.594;8.734;2023-12-29T03:29:35;99408.94;;;8.30;76.96
83762;BME280;73752;49.594;8.734;2023-12-29T03:32:02;99414.38;;;8.35;76.28
83762;BME280;73752;49.594;8.734;2023-12-29T03:34:28;99419.22;;;8.38;76.41
83762;BME280;73752;49.594;8.734;2023-12-29T03:36:55;99416.13;;;8.48;75.61
83762;BME280;73752;49.594;8.734;2023-12-29T03:39:21;99410.50;;;8.44;75.47
83762;BME280;73752;49.594;8.734;2023-12-29T03:41:49;99426.38;;;8.63;74.43
83762;BME280;73752;49.594;8.734;2023-12-29T03:44:15;99419.56;;;8.55;74.85
83762;BME280;73752;49.594;8.734;2023-12-29T03:46:43;99412.53;;;8.74;74.16
83762;BME280;73752;49.594;8.734;2023-12-29T03:49:10;99400.41;;;8.73;72.94
83762;BME280;73752;49.594;8.734;2023-12-29T03:51:37;99388.63;;;8.75;72.94
83762;BME280;73752;49.594;8.734;2023-12-29T03:54:04;99404.78;;;8.85;72.57
83762;BME280;73752;49.594;8.734;2023-12-29T03:56:31;99393.34;;;8.73;73.38
83762;BME280;73752;49.594;8.734;2023-12-29T03:58:57;99400.78;;;8.76;73.12
83762;BME280;73752;49.594;8.734;2023-12-29T04:01:24;99417.31;;;8.90;72.98
83762;BME280;73752;49.594;8.734;2023-12-29T04:03:51;99395.91;;;8.80;72.57
83762;BME280;73752;49.594;8.734;2023-12-29T04:06:18;99400.09;;;8.87;72.12
83762;BME280;73752;49.594;8.734;2023-12-29T04:08:44;99402.31;;;8.90;72.26
83762;BME280;73752;49.594;8.734;2023-12-29T04:11:11;99386.94;;;8.87;72.02
83762;BME280;73752;49.594;8.734;2023-12-29T04:13:38;99401.06;;;8.93;72.54
83762;BME280;73752;49.594;8.734;2023-12-29T04:16:07;99386.78;;;8.82;73.11
83762;BME280;73752;49.594;8.734;2023-12-29T04:18:34;99372.84;;;8.75;73.28
83762;BME280;73752;49.594;8.734;2023-12-29T04:21:00;99374.91;;;8.73;73.32
83762;BME280;73752;49.594;8.734;2023-12-29T04:23:27;99380.19;;;8.67;73.59
83762;BME280;73752;49.594;8.734;2023-12-29T04:25:54;99385.81;;;8.77;73.88
83762;BME280;73752;49.594;8.734;2023-12-29T04:28:20;99358.13;;;8.68;74.05
83762;BME280;73752;49.594;8.734;2023-12-29T04:30:47;99354.56;;;8.56;74.43
83762;BME280;73752;49.594;8.734;2023-12-29T04:33:14;99374.59;;;8.57;74.83
83762;BME280;73752;49.594;8.734;2023-12-29T04:35:40;99358.63;;;8.51;74.73
83762;BME280;73752;49.594;8.734;2023-12-29T04:38:07;99365.34;;;8.47;74.94
83762;BME280;73752;49.594;8.734;2023-12-29T04:40:33;99366.19;;;8.41;75.24
83762;BME280;73752;49.594;8.734;2023-12-29T04:43:00;99357.97;;;8.31;74.84
83762;BME280;73752;49.594;8.734;2023-12-29T04:45:27;99376.59;;;8.23;75.50
83762;BME280;73752;49.594;8.734;2023-12-29T04:47:53;99365.84;;;8.25;75.62
83762;BME280;73752;49.594;8.734;2023-12-29T04:50:19;99359.00;;;8.17;75.85
83762;BME280;73752;49.594;8.734;2023-12-29T04:52:46;99372.78;;;8.19;75.77
83762;BME280;73752;49.594;8.734;2023-12-29T04:55:13;99372.19;;;8.11;76.29
83762;BME280;73752;49.594;8.734;2023-12-29T04:57:40;99365.91;;;8.18;76.30
83762;BME280;73752;49.594;8.734;2023-12-29T05:00:07;99366.72;;;8.12;76.33
83762;BME280;73752;49.594;8.734;2023-12-29T05:02:40;99362.06;;;8.14;76.11
83762;BME280;73752;49.594;8.734;2023-12-29T05:05:07;99363.66;;;8.15;75.67
83762;BME280;73752;49.594;8.734;2023-12-29T05:07:34;99342.41;;;8.23;74.65
83762;BME280;73752;49.594;8.734;2023-12-29T05:10:00;99352.25;;;8.34;73.97
83762;BME280;73752;49.594;8.734;2023-12-29T05:12:30;99351.59;;;8.45;73.33
83762;BME280;73752;49.594;8.734;2023-12-29T05:14:59;99347.81;;;8.35;74.34
83762;BME280;73752;49.594;8.734;2023-12-29T05:17:25;99364.84;;;8.26;74.73
83762;BME280;73752;49.594;8.734;2023-12-29T05:19:52;99359.00;;;8.17;75.12
83762;BME280;73752;49.594;8.734;2023-12-29T05:22:19;99368.72;;;8.17;75.46
83762;BME280;73752;49.594;8.734;2023-12-29T05:24:45;99353.72;;;8.24;74.90
83762;BME280;73752;49.594;8.734;2023-12-29T05:27:12;99360.88;;;8.10;76.03
83762;BME280;73752;49.594;8.734;2023-12-29T05:29:38;99362.34;;;7.99;76.71
83762;BME280;73752;49.594;8.734;2023-12-29T05:32:06;99364.75;;;8.01;77.74
83762;BME280;73752;49.594;8.734;2023-12-29T05:34:34;99362.34;;;7.93;78.09
83762;BME280;73752;49.594;8.734;2023-12-29T05:37:04;99366.59;;;8.00;78.43
83762;BME280;73752;49.594;8.734;2023-12-29T05:39:31;99374.88;;;7.97;78.78
83762;BME280;73752;49.594;8.734;2023-12-29T05:41:57;99377.09;;;8.00;79.67
83762;BME280;73752;49.594;8.734;2023-12-29T05:44:24;99367.78;;;7.98;79.90
83762;BME280;73752;49.594;8.734;2023-12-29T05:46:51;99372.66;;;8.01;79.80
83762;BME280;73752;49.594;8.734;2023-12-29T05:49:18;99379.63;;;8.20;79.77
83762;BME280;73752;49.594;8.734;2023-12-29T05:51:44;99385.28;;;8.24;79.80
83762;BME280;73752;49.594;8.734;2023-12-29T05:54:12;99370.72;;;8.21;79.70
83762;BME280;73752;49.594;8.734;2023-12-29T05:56:38;99376.59;;;8.23;79.81
83762;BME280;73752;49.594;8.734;2023-12-29T05:59:08;99374.38;;;8.20;80.25
83762;BME280;73752;49.594;8.734;2023-12-29T06:01:35;99378.19;;;8.24;80.25
83762;BME280;73752;49.594;8.734;2023-12-29T06:04:02;99377.41;;;8.24;81.05
83762;BME280;73752;49.594;8.734;2023-12-29T06:06:29;99365.91;;;8.18;80.70
83762;BME280;73752;49.594;8.734;2023-12-29T06:08:56;99357.56;;;8.28;80.60
83762;BME280;73752;49.594;8.734;2023-12-29T06:11:22;99368.47;;;8.31;81.17
83762;BME280;73752;49.594;8.734;2023-12-29T06:13:49;99373.69;;;8.38;80.52
83762;BME280;73752;49.594;8.734;2023-12-29T06:16:20;99361.78;;;8.35;80.52
83762;BME280;73752;49.594;8.734;2023-12-29T06:18:47;99357.91;;;8.38;79.95
83762;BME280;73752;49.594;8.734;2023-12-29T06:21:17;99354.44;;;8.44;80.13
83762;BME280;73752;49.594;8.734;2023-12-29T06:23:44;99349.22;;;8.37;80.18
83762;BME280;73752;49.594;8.734;2023-12-29T06:26:16;99351.06;;;8.37;79.80
83762;BME280;73752;49.594;8.734;2023-12-29T06:28:43;99352.09;;;8.29;79.87
83762;BME280;73752;49.594;8.734;2023-12-29T06:31:09;99346.00;;;8.35;79.56
83762;BME280;73752;49.594;8.734;2023-12-29T06:33:36;99348.19;;;8.38;79.36
83762;BME280;73752;49.594;8.734;2023-12-29T06:36:03;99345.22;;;8.28;79.24
83762;BME280;73752;49.594;8.734;2023-12-29T06:38:30;99350.06;;;8.31;79.32
83762;BME280;73752;49.594;8.734;2023-12-29T06:40:57;99351.88;;;8.37;78.61
83762;BME280;73752;49.594;8.734;2023-12-29T06:43:24;99340.47;;;8.43;78.59
83762;BME280;73752;49.594;8.734;2023-12-29T06:45:50;99352.41;;;8.46;78.33
83762;BME280;73752;49.594;8.734;2023-12-29T06:48:19;99333.19;;;8.45;77.55
83762;BME280;73752;49.594;8.734;2023-12-29T06:50:46;99343.88;;;8.50;77.95
83762;BME280;73752;49.594;8.734;2023-12-29T06:53:13;99353.16;;;8.53;78.42
83762;BME280;73752;49.594;8.734;2023-12-29T06:55:39;99340.22;;;8.51;77.30
83762;BME280;73752;49.594;8.734;2023-12-29T06:58:06;99344.00;;;8.62;77.10
83762;BME280;73752;49.594;8.734;2023-12-29T07:00:32;99360.75;;;8.68;76.84
83762;BME280;73752;49.594;8.734;2023-12-29T07:03:00;99352.06;;;8.67;77.12
83762;BME280;73752;49.594;8.734;2023-12-29T07:05:25;99353.84;;;8.73;75.97
83762;BME280;73752;49.594;8.734;2023-12-29T07:07:51;99359.25;;;8.78;75.86
83762;BME280;73752;49.594;8.734;2023-12-29T07:10:16;99359.25;;;8.78;75.73
83762;BME280;73752;49.594;8.734;2023-12-29T07:12:42;99352.41;;;8.77;75.81
83762;BME280;73752;49.594;8.734;2023-12-29T07:15:07;99369.38;;;8.81;75.78
83762;BME280;73752;49.594;8.734;2023-12-29T07:17:33;99361.88;;;8.78;76.21
83762;BME280;73752;49.594;8.734;2023-12-29T07:19:59;99372.03;;;8.75;76.35
83762;BME280;73752;49.594;8.734;2023-12-29T07:22:25;99370.66;;;8.72;76.45
83762;BME280;73752;49.594;8.734;2023-12-29T07:24:50;99369.19;;;8.76;75.65
83762;BME280;73752;49.594;8.734;2023-12-29T07:27:16;99370.00;;;8.77;75.81
83762;BME280;73752;49.594;8.734;2023-12-29T07:29:41;99380.16;;;8.73;75.64
83762;BME280;73752;49.594;8.734;2023-12-29T07:32:07;99378.56;;;8.72;75.92
83762;BME280;73752;49.594;8.734;2023-12-29T07:34:32;99382.84;;;8.67;76.63
83762;BME280;73752;49.594;8.734;2023-12-29T07:36:57;99389.06;;;8.72;76.25
83762;BME280;73752;49.594;8.734;2023-12-29T07:39:26;99386.44;;;8.72;76.35
83762;BME280;73752;49.594;8.734;2023-12-29T07:41:51;99372.47;;;8.72;75.70
83762;BME280;73752;49.594;8.734;2023-12-29T07:44:17;99379.75;;;8.70;75.54
83762;BME280;73752;49.594;8.734;2023-12-29T07:46:43;99392.69;;;8.78;75.96
83762;BME280;73752;49.594;8.734;2023-12-29T07:49:12;99388.63;;;8.75;76.41
83762;BME280;73752;49.594;8.734;2023-12-29T07:51:42;99388.47;;;8.70;76.49
83762;BME280;73752;49.594;8.734;2023-12-29T07:54:08;99406.44;;;8.80;76.05
83762;BME280;73752;49.594;8.734;2023-12-29T07:56:33;99396.75;;;8.74;76.51
83762;BME280;73752;49.594;8.734;2023-12-29T07:58:59;99396.34;;;8.77;76.29
83762;BME280;73752;49.594;8.734;2023-12-29T08:01:24;99391.47;;;8.74;76.03
83762;BME280;73752;49.594;8.734;2023-12-29T08:03:51;99388.06;;;8.73;75.99
83762;BME280;73752;49.594;8.734;2023-12-29T08:06:16;99398.38;;;8.75;76.31
83762;BME280;73752;49.594;8.734;2023-12-29T08:08:41;99407.25;;;8.80;76.41
83762;BME280;73752;49.594;8.734;2023-12-29T08:11:17;99397.34;;;8.76;76.27
83762;BME280;73752;49.594;8.734;2023-12-29T08:13:43;99399.78;;;8.77;75.68
83762;BME280;73752;49.594;8.734;2023-12-29T08:16:09;99397.34;;;8.76;75.93
83762;BME280;73752;49.594;8.734;2023-12-29T08:18:35;99405.59;;;8.86;75.39
83762;BME280;73752;49.594;8.734;2023-12-29T08:21:01;99423.31;;;8.97;75.12
83762;BME280;73752;49.594;8.734;2023-12-29T08:23:26;99402.78;;;8.81;75.22
83762;BME280;73752;49.594;8.734;2023-12-29T08:25:52;99397.06;;;8.90;74.89
83762;BME280;73752;49.594;8.734;2023-12-29T08:28:18;99399.84;;;8.95;74.58
83762;BME280;73752;49.594;8.734;2023-12-29T08:30:43;99410.53;;;9.01;74.43
83762;BME280;73752;49.594;8.734;2023-12-29T08:33:11;99398.16;;;9.01;74.40
83762;BME280;73752;49.594;8.734;2023-12-29T08:35:40;99405.84;;;9.03;74.65
83762;BME280;73752;49.594;8.734;2023-12-29T08:38:06;99410.94;;;9.04;74.57
83762;BME280;73752;49.594;8.734;2023-12-29T08:40:31;99418.75;;;9.11;74.28
83762;BME280;73752;49.594;8.734;2023-12-29T08:42:56;99413.84;;;9.14;74.12
83762;BME280;73752;49.594;8.734;2023-12-29T08:45:22;99414.84;;;9.20;73.50
83762;BME280;73752;49.594;8.734;2023-12-29T08:47:47;99415.38;;;9.28;73.07
83762;BME280;73752;49.594;8.734;2023-12-29T08:50:16;99413.25;;;9.37;72.42
83762;BME280;73752;49.594;8.734;2023-12-29T08:52:42;99422.28;;;9.48;72.34
83762;BME280;73752;49.594;8.734;2023-12-29T08:55:07;99411.38;;;9.44;72.25
83762;BME280;73752;49.594;8.734;2023-12-29T08:57:33;99407.34;;;9.41;72.29
83762;BME280;73752;49.594;8.734;2023-12-29T08:59:59;99409.75;;;9.43;72.34
83762;BME280;73752;49.594;8.734;2023-12-29T09:02:24;99412.94;;;9.52;72.32
83762;BME280;73752;49.594;8.734;2023-12-29T09:04:50;99408.91;;;9.49;71.97
83762;BME280;73752;49.594;8.734;2023-12-29T09:07:15;99402.22;;;9.47;72.54
83762;BME280;73752;49.594;8.734;2023-12-29T09:09:43;99405.78;;;9.59;72.17
83762;BME280;73752;49.594;8.734;2023-12-29T09:12:09;99403.78;;;9.54;71.90
83762;BME280;73752;49.594;8.734;2023-12-29T09:14:34;99396.63;;;9.61;71.26
83762;BME280;73752;49.594;8.734;2023-12-29T09:17:00;99391.41;;;9.73;70.83
83762;BME280;73752;49.594;8.734;2023-12-29T09:19:26;99388.78;;;9.73;70.61
83762;BME280;73752;49.594;8.734;2023-12-29T09:21:51;99395.97;;;9.84;70.00
83762;BME280;73752;49.594;8.734;2023-12-29T09:24:16;99381.66;;;9.92;69.56
83762;BME280;73752;49.594;8.734;2023-12-29T09:26:42;99372.13;;;9.91;69.35
83762;BME280;73752;49.594;8.734;2023-12-29T09:29:07;99374.13;;;9.95;69.21
83762;BME280;73752;49.594;8.734;2023-12-29T09:31:33;99389.22;;;10.06;68.32
83762;BME280;73752;49.594;8.734;2023-12-29T09:33:58;99377.72;;;10.01;68.74
83762;BME280;73752;49.594;8.734;2023-12-29T09:36:23;99391.25;;;10.04;68.83
83762;BME280;73752;49.594;8.734;2023-12-29T09:38:49;99380.28;;;10.07;68.58
83762;BME280;73752;49.594;8.734;2023-12-29T09:41:15;99383.22;;;10.17;68.06
83762;BME280;73752;49.594;8.734;2023-12-29T09:43:41;99397.72;;;10.26;68.45
83762;BME280;73752;49.594;8.734;2023-12-29T09:46:09;99374.72;;;10.15;68.55
83762;BME280;73752;49.594;8.734;2023-12-29T09:48:36;99381.78;;;10.15;69.20
83762;BME280;73752;49.594;8.734;2023-12-29T09:51:04;99375.00;;;10.07;69.48
83762;BME280;73752;49.594;8.734;2023-12-29T09:53:30;99386.13;;;10.09;69.27
83762;BME280;73752;49.594;8.734;2023-12-29T09:55:57;99390.72;;;10.14;69.35
83762;BME280;73752;49.594;8.734;2023-12-29T09:58:24;99390.69;;;10.20;69.93
83762;BME280;73752;49.594;8.734;2023-12-29T10:00:51;99382.00;;;10.13;69.22
83762;BME280;73752;49.594;8.734;2023-12-29T10:03:16;99380.34;;;10.19;69.03
83762;BME280;73752;49.594;8.734;2023-12-29T10:05:43;99375.34;;;10.29;68.68
83762;BME280;73752;49.594;8.734;2023-12-29T10:08:14;99377.41;;;10.27;68.91
83762;BME280;73752;49.594;8.734;2023-12-29T10:10:41;99372.84;;;10.34;68.42
83762;BME280;73752;49.594;8.734;2023-12-29T10:13:09;99387.63;;;10.53;67.98
83762;BME280;73752;49.594;8.734;2023-12-29T10:15:47;99371.31;;;10.56;67.73
83762;BME280;73752;49.594;8.734;2023-12-29T10:18:21;99378.38;;;10.86;66.90
83762;BME280;73752;49.594;8.734;2023-12-29T10:20:56;99380.72;;;11.05;66.47
83762;BME280;73752;49.594;8.734;2023-12-29T10:23:42;99359.03;;;11.15;66.11
83762;BME280;73752;49.594;8.734;2023-12-29T10:26:10;99364.19;;;10.98;65.68
83762;BME280;73752;49.594;8.734;2023-12-29T10:28:36;99373.25;;;11.02;65.92
83762;BME280;73752;49.594;8.734;2023-12-29T10:31:01;99381.50;;;10.83;66.12
83762;BME280;73752;49.594;8.734;2023-12-29T10:33:27;99382.16;;;10.78;67.39
83762;BME280;73752;49.594;8.734;2023-12-29T10:35:59;99375.25;;;10.65;67.91
83762;BME280;73752;49.594;8.734;2023-12-29T10:38:29;99382.16;;;10.66;68.32
83762;BME280;73752;49.594;8.734;2023-12-29T10:40:54;99386.97;;;10.69;68.45
83762;BME280;73752;49.594;8.734;2023-12-29T10:43:23;99381.00;;;10.62;68.62
83762;BME280;73752;49.594;8.734;2023-12-29T10:45:49;99369.84;;;10.60;67.80
83762;BME280;73752;49.594;8.734;2023-12-29T10:48:23;99384.78;;;10.66;68.68
83762;BME280;73752;49.594;8.734;2023-12-29T10:50:49;99366.25;;;10.55;68.86
83762;BME280;73752;49.594;8.734;2023-12-29T10:53:15;99390.97;;;10.60;69.32
83762;BME280;73752;49.594;8.734;2023-12-29T10:55:44;99390.25;;;10.53;69.40
83762;BME280;73752;49.594;8.734;2023-12-29T10:58:09;99374.00;;;10.38;69.58
83762;BME280;73752;49.594;8.734;2023-12-29T11:00:35;99375.84;;;10.38;69.38
83762;BME280;73752;49.594;8.734;2023-12-29T11:03:00;99368.81;;;10.32;69.86
83762;BME280;73752;49.594;8.734;2023-12-29T11:05:26;99380.78;;;10.34;69.62
83762;BME280;73752;49.594;8.734;2023-12-29T11:07:53;99364.59;;;10.31;69.03
83762;BME280;73752;49.594;8.734;2023-12-29T11:10:20;99387.00;;;10.40;68.55
83762;BME280;73752;49.594;8.734;2023-12-29T11:12:47;99383.31;;;10.41;68.59
83762;BME280;73752;49.594;8.734;2023-12-29T11:15:13;99379.06;;;10.40;68.58
83762;BME280;73752;49.594;8.734;2023-12-29T11:17:41;99376.06;;;10.36;67.93
83762;BME280;73752;49.594;8.734;2023-12-29T11:20:15;99385.94;;;10.41;67.89
83762;BME280;73752;49.594;8.734;2023-12-29T11:22:42;99385.03;;;10.35;68.00
83762;BME280;73752;49.594;8.734;2023-12-29T11:25:08;99384.13;;;10.41;68.31
83762;BME280;73752;49.594;8.734;2023-12-29T11:27:34;99383.69;;;10.44;68.11
83762;BME280;73752;49.594;8.734;2023-12-29T11:30:01;99381.97;;;10.50;68.04
83762;BME280;73752;49.594;8.734;2023-12-29T11:32:40;99384.72;;;10.55;67.79
83762;BME280;73752;49.594;8.734;2023-12-29T11:35:15;99392.91;;;10.65;67.88
83762;BME280;73752;49.594;8.734;2023-12-29T11:40:20;99388.72;;;10.76;67.86
83762;BME280;73752;49.594;8.734;2023-12-29T11:42:52;99378.84;;;10.71;67.94
83762;BME280;73752;49.594;8.734;2023-12-29T11:45:25;99388.84;;;10.81;67.63
83762;BME280;73752;49.594;8.734;2023-12-29T11:47:51;99382.72;;;10.68;67.95
83762;BME280;73752;49.594;8.734;2023-12-29T11:50:39;99381.34;;;10.78;67.65
83762;BME280;73752;49.594;8.734;2023-12-29T11:53:06;99373.75;;;10.69;67.19
83762;BME280;73752;49.594;8.734;2023-12-29T11:55:35;99382.03;;;10.73;67.21
83762;BME280;73752;49.594;8.734;2023-12-29T11:58:02;99361.59;;;10.68;67.70
83762;BME280;73752;49.594;8.734;2023-12-29T12:00:48;99361.25;;;10.77;67.00
83762;BME280;73752;49.594;8.734;2023-12-29T12:03:35;99363.78;;;10.71;66.83
83762;BME280;73752;49.594;8.734;2023-12-29T12:06:01;99369.44;;;10.75;66.74
83762;BME280;73752;49.594;8.734;2023-12-29T12:10:54;99354.69;;;10.67;66.02
83762;BME280;73752;49.594;8.734;2023-12-29T12:13:43;99357.72;;;10.83;65.83
83762;BME280;73752;49.594;8.734;2023-12-29T12:16:09;99340.84;;;10.84;65.61
83762;BME280;73752;49.594;8.734;2023-12-29T12:18:34;99332.47;;;10.98;64.73
83762;BME280;73752;49.594;8.734;2023-12-29T12:21:00;99338.31;;;11.00;64.87
83762;BME280;73752;49.594;8.734;2023-12-29T12:23:31;99335.22;;;11.03;64.81
83762;BME280;73752;49.594;8.734;2023-12-29T12:26:00;99331.91;;;10.96;64.20
83762;BME280;73752;49.594;8.734;2023-12-29T12:28:26;99332.13;;;10.95;64.58
83762;BME280;73752;49.594;8.734;2023-12-29T12:30:51;99343.16;;;11.03;64.24
83762;BME280;73752;49.594;8.734;2023-12-29T12:33:19;99338.31;;;10.89;64.65
83762;BME280;73752;49.594;8.734;2023-12-29T12:35:44;99331.44;;;10.88;64.18
83762;BME280;73752;49.594;8.734;2023-12-29T12:38:16;99343.38;;;10.90;64.45
83762;BME280;73752;49.594;8.734;2023-12-29T12:40:49;99348.78;;;10.95;63.59
83762;BME280;73752;49.594;8.734;2023-12-29T12:43:16;99342.81;;;10.88;64.18
83762;BME280;73752;49.594;8.734;2023-12-29T12:45:46;99333.84;;;10.89;63.84
83762;BME280;73752;49.594;8.734;2023-12-29T12:48:18;99336.38;;;10.84;63.45
83762;BME280;73752;49.594;8.734;2023-12-29T12:50:46;99347.06;;;10.89;63.63
83762;BME280;73752;49.594;8.734;2023-12-29T12:53:13;99334.75;;;10.83;63.85
83762;BME280;73752;49.594;8.734;2023-12-29T12:55:49;99332.47;;;10.75;63.98
83762;BME280;73752;49.594;8.734;2023-12-29T12:58:17;99325.34;;;10.87;63.39
83762;BME280;73752;49.594;8.734;2023-12-29T13:00:44;99313.75;;;10.88;62.87
83762;BME280;73752;49.594;8.734;2023-12-29T13:03:10;99325.13;;;11.00;62.69
83762;BME280;73752;49.594;8.734;2023-12-29T13:05:36;99324.56;;;11.10;62.60
83762;BME280;73752;49.594;8.734;2023-12-29T13:08:03;99323.28;;;11.12;61.83
83762;BME280;73752;49.594;8.734;2023-12-29T13:10:30;99318.56;;;11.14;61.87
83762;BME280;73752;49.594;8.734;2023-12-29T13:12:55;99321.34;;;11.19;61.79
83762;BME280;73752;49.594;8.734;2023-12-29T13:15:22;99323.75;;;11.21;62.22
83762;BME280;73752;49.594;8.734;2023-12-29T13:17:54;99322.94;;;11.09;62.41